sensor_id;sensor_type;location;lat;lon;timestamp;pressure;altitude;pressure_sealevel;temperature;humidity
13478;BME280;12598;62.382;17.344;2023-04-06T00:00:52;102651.03;;;17.59;20.15
13478;BME280;12598;62.382;17.344;2023-04-06T00:01:54;102659.94;;;17.59;19.98
13478;BME280;12598;62.382;17.344;2023-04-06T00:02:56;102655.94;;;17.52;20.03
13478;BME280;12598;62.382;17.344;2023-04-06T00:03:58;102663.56;;;17.58;20.25
13478;BME280;12598;62.382;17.344;2023-04-06T00:05:00;102653.81;;;17.57;20.07
13478;BME280;12598;62.382;17.344;2023-04-06T00:06:03;102665.38;;;17.58;19.84
13478;BME280;12598;62.382;17.344;2023-04-06T00:07:05;102668.16;;;17.56;19.95
13478;BME280;12598;62.382;17.344;2023-04-06T00:08:08;102666.34;;;17.57;20.24
13478;BME280;12598;62.382;17.344;2023-04-06T00:09:10;102665.50;;;17.56;20.33
13478;BME280;12598;62.382;17.344;2023-04-06T00:10:11;102666.44;;;17.55;20.19
13478;BME280;12598;62.382;17.344;2023-04-06T00:11:13;102665.50;;;17.56;20.01
13478;BME280;12598;62.382;17.344;2023-04-06T00:12:16;102657.47;;;17.56;20.27
13478;BME280;12598;62.382;17.344;2023-04-06T00:13:18;102655.06;;;17.52;20.18
13478;BME280;12598;62.382;17.344;2023-04-06T00:14:20;102654.88;;;17.55;20.54
13478;BME280;12598;62.382;17.344;2023-04-06T00:15:21;102655.75;;;17.55;20.45
13478;BME280;12598;62.382;17.344;2023-04-06T00:16:23;102647.91;;;17.52;20.38
13478;BME280;12598;62.382;17.344;2023-04-06T00:17:26;102647.81;;;17.54;20.34
13478;BME280;12598;62.382;17.344;2023-04-06T00:18:28;102646.97;;;17.53;20.32
13478;BME280;12598;62.382;17.344;2023-04-06T00:19:30;102643.31;;;17.54;20.09
13478;BME280;12598;62.382;17.344;2023-04-06T00:20:32;102633.88;;;17.49;20.24
13478;BME280;12598;62.382;17.344;2023-04-06T00:21:34;102625.09;;;17.47;20.07
13478;BME280;12598;62.382;17.344;2023-04-06T00:22:37;102638.06;;;17.53;20.13
13478;BME280;12598;62.382;17.344;2023-04-06T00:23:39;102639.03;;;17.52;20.38
13478;BME280;12598;62.382;17.344;2023-04-06T00:24:41;102646.09;;;17.53;20.43
13478;BME280;12598;62.382;17.344;2023-04-06T00:25:43;102641.63;;;17.53;20.36
13478;BME280;12598;62.382;17.344;2023-04-06T00:26:45;102626.16;;;17.44;20.31
13478;BME280;12598;62.382;17.344;2023-04-06T00:27:47;102634.53;;;17.52;20.10
13478;BME280;12598;62.382;17.344;2023-04-06T00:28:49;102614.69;;;17.42;20.40
13478;BME280;12598;62.382;17.344;2023-04-06T00:29:53;102621.66;;;17.45;20.31
13478;BME280;12598;62.382;17.344;2023-04-06T00:30:55;102632.06;;;17.49;20.14
13478;BME280;12598;62.382;17.344;2023-04-06T00:31:57;102626.53;;;17.52;20.31
13478;BME280;12598;62.382;17.344;2023-04-06T00:32:59;102637.31;;;17.51;20.08
13478;BME280;12598;62.382;17.344;2023-04-06T00:34:02;102638.19;;;17.51;20.37
13478;BME280;12598;62.382;17.344;2023-04-06T00:35:04;102636.47;;;17.50;20.56
13478;BME280;12598;62.382;17.344;2023-04-06T00:36:07;102635.50;;;17.51;20.12
13478;BME280;12598;62.382;17.344;2023-04-06T00:37:09;102639.13;;;17.50;20.38
13478;BME280;12598;62.382;17.344;2023-04-06T00:38:11;102631.13;;;17.50;20.38
13478;BME280;12598;62.382;17.344;2023-04-06T00:39:13;102635.69;;;17.48;20.31
13478;BME280;12598;62.382;17.344;2023-04-06T00:40:15;102648.97;;;17.50;20.19
13478;BME280;12598;62.382;17.344;2023-04-06T00:41:18;102640.09;;;17.49;20.38
13478;BME280;12598;62.382;17.344;2023-04-06T00:42:20;102649.84;;;17.50;20.32
13478;BME280;12598;62.382;17.344;2023-04-06T00:43:27;102645.31;;;17.51;20.38
13478;BME280;12598;62.382;17.344;2023-04-06T00:44:29;102636.00;;;17.44;20.08
13478;BME280;12598;62.382;17.344;2023-04-06T00:45:31;102653.34;;;17.51;20.12
13478;BME280;12598;62.382;17.344;2023-04-06T00:46:34;102648.97;;;17.50;20.20
13478;BME280;12598;62.382;17.344;2023-04-06T00:47:36;102648.19;;;17.48;20.30
13478;BME280;12598;62.382;17.344;2023-04-06T00:48:39;102650.78;;;17.49;20.15
13478;BME280;12598;62.382;17.344;2023-04-06T00:49:42;102645.44;;;17.49;20.31
13478;BME280;12598;62.382;17.344;2023-04-06T00:50:44;102644.56;;;17.49;20.36
13478;BME280;12598;62.382;17.344;2023-04-06T00:51:46;102638.47;;;17.47;20.20
13478;BME280;12598;62.382;17.344;2023-04-06T00:52:49;102639.34;;;17.47;20.22
13478;BME280;12598;62.382;17.344;2023-04-06T00:53:57;102647.16;;;17.50;20.34
13478;BME280;12598;62.382;17.344;2023-04-06T00:54:59;102630.72;;;17.42;20.09
13478;BME280;12598;62.382;17.344;2023-04-06T00:56:02;102647.38;;;17.47;20.41
13478;BME280;12598;62.382;17.344;2023-04-06T00:57:12;102641.81;;;17.50;20.42
13478;BME280;12598;62.382;17.344;2023-04-06T00:58:15;102629.88;;;17.42;20.38
13478;BME280;12598;62.382;17.344;2023-04-06T00:59:23;102641.81;;;17.50;20.42
13478;BME280;12598;62.382;17.344;2023-04-06T01:00:28;102634.75;;;17.49;20.33
13478;BME280;12598;62.382;17.344;2023-04-06T01:01:33;102642.78;;;17.49;20.34
13478;BME280;12598;62.382;17.344;2023-04-06T01:02:43;102636.47;;;17.50;20.20
13478;BME280;12598;62.382;17.344;2023-04-06T01:03:50;102639.13;;;17.50;20.21
13478;BME280;12598;62.382;17.344;2023-04-06T01:04:54;102639.41;;;17.46;20.23
13478;BME280;12598;62.382;17.344;2023-04-06T01:06:10;102642.56;;;17.52;20.37
13478;BME280;12598;62.382;17.344;2023-04-06T01:07:14;102641.81;;;17.50;20.39
13478;BME280;12598;62.382;17.344;2023-04-06T01:08:26;102639.03;;;17.52;20.18
13478;BME280;12598;62.382;17.344;2023-04-06T01:09:41;102644.28;;;17.53;20.43
13478;BME280;12598;62.382;17.344;2023-04-06T01:10:50;102643.53;;;17.51;20.20
13478;BME280;12598;62.382;17.344;2023-04-06T01:12:00;102641.69;;;17.52;20.24
13478;BME280;12598;62.382;17.344;2023-04-06T01:13:04;102641.81;;;17.50;20.51
13478;BME280;12598;62.382;17.344;2023-04-06T01:14:27;102634.94;;;17.46;20.37
13478;BME280;12598;62.382;17.344;2023-04-06T01:15:33;102648.00;;;17.51;20.34
13478;BME280;12598;62.382;17.344;2023-04-06T01:16:37;102647.25;;;17.49;20.66
13478;BME280;12598;62.382;17.344;2023-04-06T01:18:01;102646.09;;;17.53;20.44
13478;BME280;12598;62.382;17.344;2023-04-06T01:19:11;102647.16;;;17.50;20.15
13478;BME280;12598;62.382;17.344;2023-04-06T01:20:18;102648.00;;;17.51;20.39
13478;BME280;12598;62.382;17.344;2023-04-06T01:21:20;102627.50;;;17.37;20.25
13478;BME280;12598;62.382;17.344;2023-04-06T01:22:45;102642.66;;;17.51;19.93
13478;BME280;12598;62.382;17.344;2023-04-06T01:23:47;102639.22;;;17.49;20.40
13478;BME280;12598;62.382;17.344;2023-04-06T01:24:55;102640.28;;;17.46;20.31
13478;BME280;12598;62.382;17.344;2023-04-06T01:26:37;102639.03;;;17.52;20.30
13478;BME280;12598;62.382;17.344;2023-04-06T01:27:42;102638.47;;;17.47;20.29
13478;BME280;12598;62.382;17.344;2023-04-06T01:28:47;102642.00;;;17.47;20.36
13478;BME280;12598;62.382;17.344;2023-04-06T01:29:59;102644.56;;;17.49;20.30
13478;BME280;12598;62.382;17.344;2023-04-06T01:31:17;102625.69;;;17.38;20.39
13478;BME280;12598;62.382;17.344;2023-04-06T01:32:23;102638.47;;;17.47;20.36
13478;BME280;12598;62.382;17.344;2023-04-06T01:33:26;102649.28;;;17.45;20.17
13478;BME280;12598;62.382;17.344;2023-04-06T01:34:40;102637.03;;;17.41;20.24
13478;BME280;12598;62.382;17.344;2023-04-06T01:35:43;102641.34;;;17.44;20.11
13478;BME280;12598;62.382;17.344;2023-04-06T01:36:49;102647.63;;;17.43;20.13
13478;BME280;12598;62.382;17.344;2023-04-06T01:37:57;102640.47;;;17.43;20.08
13478;BME280;12598;62.382;17.344;2023-04-06T01:39:04;102639.63;;;17.43;20.13
13478;BME280;12598;62.382;17.344;2023-04-06T01:40:10;102638.94;;;17.39;20.24
13478;BME280;12598;62.382;17.344;2023-04-06T01:41:21;102635.13;;;17.43;20.41
13478;BME280;12598;62.382;17.344;2023-04-06T01:42:26;102638.75;;;17.42;20.27
13478;BME280;12598;62.382;17.344;2023-04-06T01:43:28;102633.50;;;17.41;20.28
13478;BME280;12598;62.382;17.344;2023-04-06T01:44:39;102628.91;;;17.43;20.39
13478;BME280;12598;62.382;17.344;2023-04-06T01:45:46;102627.59;;;17.36;20.37
13478;BME280;12598;62.382;17.344;2023-04-06T01:46:52;102640.56;;;17.42;20.20
13478;BME280;12598;62.382;17.344;2023-04-06T01:47:54;102639.81;;;17.40;20.42
13478;BME280;12598;62.382;17.344;2023-04-06T01:48:59;102631.78;;;17.40;20.61
13478;BME280;12598;62.382;17.344;2023-04-06T01:50:09;102629.00;;;17.41;20.30
13478;BME280;12598;62.382;17.344;2023-04-06T01:51:18;102628.38;;;17.38;20.37
13478;BME280;12598;62.382;17.344;2023-04-06T01:52:26;102633.41;;;17.42;20.13
13478;BME280;12598;62.382;17.344;2023-04-06T01:53:28;102627.28;;;17.40;20.38
13478;BME280;12598;62.382;17.344;2023-04-06T01:54:36;102632.56;;;17.42;20.43
13478;BME280;12598;62.382;17.344;2023-04-06T01:55:57;102631.50;;;17.44;20.08
13478;BME280;12598;62.382;17.344;2023-04-06T01:57:06;102631.50;;;17.44;20.47
13478;BME280;12598;62.382;17.344;2023-04-06T01:58:31;102627.75;;;17.47;20.19
13478;BME280;12598;62.382;17.344;2023-04-06T01:59:33;102614.31;;;17.34;20.51
13478;BME280;12598;62.382;17.344;2023-04-06T02:00:41;102620.34;;;17.38;20.36
13478;BME280;12598;62.382;17.344;2023-04-06T02:01:43;102621.38;;;17.35;20.24
13478;BME280;12598;62.382;17.344;2023-04-06T02:02:45;102628.25;;;17.39;20.21
13478;BME280;12598;62.382;17.344;2023-04-06T02:03:55;102629.13;;;17.40;20.46
13478;BME280;12598;62.382;17.344;2023-04-06T02:04:58;102608.28;;;17.31;20.40
13478;BME280;12598;62.382;17.344;2023-04-06T02:06:00;102628.25;;;17.39;20.43
13478;BME280;12598;62.382;17.344;2023-04-06T02:07:08;102628.25;;;17.39;20.49
13478;BME280;12598;62.382;17.344;2023-04-06T02:08:10;102630.16;;;17.37;20.53
13478;BME280;12598;62.382;17.344;2023-04-06T02:09:12;102631.03;;;17.38;20.25
13478;BME280;12598;62.382;17.344;2023-04-06T02:10:15;102629.50;;;17.34;20.41
13478;BME280;12598;62.382;17.344;2023-04-06T02:11:18;102619.00;;;17.31;20.22
13478;BME280;12598;62.382;17.344;2023-04-06T02:12:23;102637.22;;;17.38;20.62
13478;BME280;12598;62.382;17.344;2023-04-06T02:13:26;102619.81;;;17.31;20.35
13478;BME280;12598;62.382;17.344;2023-04-06T02:14:29;102619.81;;;17.31;20.53
13478;BME280;12598;62.382;17.344;2023-04-06T02:15:34;102634.56;;;17.38;20.48
13478;BME280;12598;62.382;17.344;2023-04-06T02:16:36;102635.50;;;17.37;20.55
13478;BME280;12598;62.382;17.344;2023-04-06T02:17:38;102630.16;;;17.37;20.78
13478;BME280;12598;62.382;17.344;2023-04-06T02:18:40;102625.78;;;17.36;20.37
13478;BME280;12598;62.382;17.344;2023-04-06T02:19:42;102618.13;;;17.30;20.37
13478;BME280;12598;62.382;17.344;2023-04-06T02:20:44;102620.97;;;17.27;20.40
13478;BME280;12598;62.382;17.344;2023-04-06T02:21:47;102622.50;;;17.31;20.29
13478;BME280;12598;62.382;17.344;2023-04-06T02:22:49;102637.34;;;17.37;20.48
13478;BME280;12598;62.382;17.344;2023-04-06T02:23:51;102633.78;;;17.36;20.75
13478;BME280;12598;62.382;17.344;2023-04-06T02:24:53;102622.25;;;17.36;20.42
13478;BME280;12598;62.382;17.344;2023-04-06T02:25:55;102619.56;;;17.36;20.28
13478;BME280;12598;62.382;17.344;2023-04-06T02:26:57;102621.38;;;17.35;20.45
13478;BME280;12598;62.382;17.344;2023-04-06T02:27:59;102619.56;;;17.36;20.62
13478;BME280;12598;62.382;17.344;2023-04-06T02:29:03;102624.81;;;17.37;20.60
13478;BME280;12598;62.382;17.344;2023-04-06T02:30:07;102627.50;;;17.37;20.49
13478;BME280;12598;62.382;17.344;2023-04-06T02:31:09;102624.81;;;17.37;20.56
13478;BME280;12598;62.382;17.344;2023-04-06T02:32:12;102624.81;;;17.37;20.45
13478;BME280;12598;62.382;17.344;2023-04-06T02:33:14;102623.97;;;17.37;20.65
13478;BME280;12598;62.382;17.344;2023-04-06T02:34:20;102625.78;;;17.36;20.49
13478;BME280;12598;62.382;17.344;2023-04-06T02:35:25;102621.28;;;17.37;20.63
13478;BME280;12598;62.382;17.344;2023-04-06T02:36:29;102620.41;;;17.36;20.56
13478;BME280;12598;62.382;17.344;2023-04-06T02:37:31;102619.56;;;17.36;20.83
13478;BME280;12598;62.382;17.344;2023-04-06T02:38:33;102623.09;;;17.36;20.60
13478;BME280;12598;62.382;17.344;2023-04-06T02:39:36;102623.09;;;17.36;20.61
13478;BME280;12598;62.382;17.344;2023-04-06T02:40:41;102631.13;;;17.36;20.65
13478;BME280;12598;62.382;17.344;2023-04-06T02:41:54;102618.41;;;17.40;20.69
13478;BME280;12598;62.382;17.344;2023-04-06T02:42:59;102627.41;;;17.39;20.69
13478;BME280;12598;62.382;17.344;2023-04-06T02:44:08;102622.13;;;17.37;20.84
13478;BME280;12598;62.382;17.344;2023-04-06T02:45:16;102620.41;;;17.36;20.87
13478;BME280;12598;62.382;17.344;2023-04-06T02:46:21;102622.91;;;17.39;20.68
13478;BME280;12598;62.382;17.344;2023-04-06T02:47:23;102631.88;;;17.38;20.71
13478;BME280;12598;62.382;17.344;2023-04-06T02:48:26;102633.78;;;17.36;20.92
13478;BME280;12598;62.382;17.344;2023-04-06T02:49:28;102628.44;;;17.36;20.81
13478;BME280;12598;62.382;17.344;2023-04-06T02:50:32;102621.38;;;17.35;21.01
13478;BME280;12598;62.382;17.344;2023-04-06T02:51:38;102620.41;;;17.36;20.84
13478;BME280;12598;62.382;17.344;2023-04-06T02:52:53;102604.94;;;17.27;21.10
13478;BME280;12598;62.382;17.344;2023-04-06T02:53:55;102623.97;;;17.37;21.15
13478;BME280;12598;62.382;17.344;2023-04-06T02:54:57;102617.75;;;17.36;21.20
13478;BME280;12598;62.382;17.344;2023-04-06T02:56:02;102617.75;;;17.36;20.67
13478;BME280;12598;62.382;17.344;2023-04-06T02:57:16;102621.19;;;17.38;21.06
13478;BME280;12598;62.382;17.344;2023-04-06T02:58:20;102619.47;;;17.37;21.20
13478;BME280;12598;62.382;17.344;2023-04-06T02:59:26;102624.81;;;17.37;21.00
13478;BME280;12598;62.382;17.344;2023-04-06T03:00:38;102611.75;;;17.33;21.13
13478;BME280;12598;62.382;17.344;2023-04-06T03:01:40;102625.69;;;17.38;20.86
13478;BME280;12598;62.382;17.344;2023-04-06T03:02:42;102614.22;;;17.36;20.97
13478;BME280;12598;62.382;17.344;2023-04-06T03:03:47;102599.72;;;17.26;20.98
13478;BME280;12598;62.382;17.344;2023-04-06T03:04:56;102620.41;;;17.36;20.95
13478;BME280;12598;62.382;17.344;2023-04-06T03:06:04;102619.56;;;17.36;21.39
13478;BME280;12598;62.382;17.344;2023-04-06T03:07:06;102625.78;;;17.36;21.30
13478;BME280;12598;62.382;17.344;2023-04-06T03:08:12;102617.75;;;17.36;20.99
13478;BME280;12598;62.382;17.344;2023-04-06T03:09:17;102623.09;;;17.36;21.54
13478;BME280;12598;62.382;17.344;2023-04-06T03:10:19;102621.50;;;17.34;21.37
13478;BME280;12598;62.382;17.344;2023-04-06T03:11:22;102618.81;;;17.34;21.42
13478;BME280;12598;62.382;17.344;2023-04-06T03:12:26;102628.63;;;17.33;21.20
13478;BME280;12598;62.382;17.344;2023-04-06T03:13:48;102623.84;;;17.38;21.13
13478;BME280;12598;62.382;17.344;2023-04-06T03:14:50;102624.94;;;17.36;21.14
13478;BME280;12598;62.382;17.344;2023-04-06T03:15:54;102612.88;;;17.29;21.28
13478;BME280;12598;62.382;17.344;2023-04-06T03:16:56;102625.00;;;17.34;21.45
13478;BME280;12598;62.382;17.344;2023-04-06T03:17:59;102625.88;;;17.35;21.27
13478;BME280;12598;62.382;17.344;2023-04-06T03:19:10;102616.59;;;17.26;21.21
13478;BME280;12598;62.382;17.344;2023-04-06T03:20:12;102630.34;;;17.34;21.31
13478;BME280;12598;62.382;17.344;2023-04-06T03:21:14;102597.72;;;17.15;21.26
13478;BME280;12598;62.382;17.344;2023-04-06T03:22:23;102617.34;;;17.28;21.72
13478;BME280;12598;62.382;17.344;2023-04-06T03:23:25;102629.50;;;17.34;21.38
13478;BME280;12598;62.382;17.344;2023-04-06T03:24:32;102633.03;;;17.34;21.29
13478;BME280;12598;62.382;17.344;2023-04-06T03:25:34;102625.00;;;17.34;21.34
13478;BME280;12598;62.382;17.344;2023-04-06T03:26:39;102629.50;;;17.34;21.38
13478;BME280;12598;62.382;17.344;2023-04-06T03:27:42;102624.22;;;17.32;21.55
13478;BME280;12598;62.382;17.344;2023-04-06T03:28:48;102629.41;;;17.35;21.67
13478;BME280;12598;62.382;17.344;2023-04-06T03:29:50;102629.50;;;17.34;21.63
13478;BME280;12598;62.382;17.344;2023-04-06T03:30:59;102632.06;;;17.35;21.53
13478;BME280;12598;62.382;17.344;2023-04-06T03:32:24;102634.34;;;17.41;21.67
13478;BME280;12598;62.382;17.344;2023-04-06T03:33:26;102638.09;;;17.39;21.49
13478;BME280;12598;62.382;17.344;2023-04-06T03:34:31;102638.19;;;17.37;21.63
13478;BME280;12598;62.382;17.344;2023-04-06T03:35:33;102638.31;;;17.36;21.61
13478;BME280;12598;62.382;17.344;2023-04-06T03:36:35;102636.59;;;17.35;21.36
13478;BME280;12598;62.382;17.344;2023-04-06T03:37:38;102640.22;;;17.34;21.69
13478;BME280;12598;62.382;17.344;2023-04-06T03:38:40;102642.94;;;17.32;21.49
13478;BME280;12598;62.382;17.344;2023-04-06T03:39:46;102633.19;;;17.31;21.52
13478;BME280;12598;62.382;17.344;2023-04-06T03:40:54;102637.41;;;17.35;21.49
13478;BME280;12598;62.382;17.344;2023-04-06T03:42:00;102632.94;;;17.36;21.51
13478;BME280;12598;62.382;17.344;2023-04-06T03:43:10;102620.69;;;17.32;21.60
13478;BME280;12598;62.382;17.344;2023-04-06T03:44:13;102639.13;;;17.36;21.51
13478;BME280;12598;62.382;17.344;2023-04-06T03:45:18;102633.78;;;17.36;21.48
13478;BME280;12598;62.382;17.344;2023-04-06T03:46:23;102626.06;;;17.32;21.50
13478;BME280;12598;62.382;17.344;2023-04-06T03:47:27;102633.78;;;17.36;21.56
13478;BME280;12598;62.382;17.344;2023-04-06T03:48:33;102627.50;;;17.37;21.68
13478;BME280;12598;62.382;17.344;2023-04-06T03:49:38;102635.63;;;17.36;21.50
13478;BME280;12598;62.382;17.344;2023-04-06T03:50:43;102635.50;;;17.37;21.81
13478;BME280;12598;62.382;17.344;2023-04-06T03:51:46;102633.91;;;17.35;21.60
13478;BME280;12598;62.382;17.344;2023-04-06T03:52:47;102634.88;;;17.34;21.63
13478;BME280;12598;62.382;17.344;2023-04-06T03:53:49;102636.59;;;17.35;21.72
13478;BME280;12598;62.382;17.344;2023-04-06T03:54:52;102623.28;;;17.33;21.68
13478;BME280;12598;62.382;17.344;2023-04-06T03:55:54;102631.47;;;17.30;21.59
13478;BME280;12598;62.382;17.344;2023-04-06T03:56:56;102631.47;;;17.30;21.68
13478;BME280;12598;62.382;17.344;2023-04-06T03:58:00;102636.59;;;17.35;21.91
13478;BME280;12598;62.382;17.344;2023-04-06T03:59:02;102637.53;;;17.34;21.96
13478;BME280;12598;62.382;17.344;2023-04-06T04:00:05;102637.69;;;17.31;21.87
13478;BME280;12598;62.382;17.344;2023-04-06T04:01:13;102637.41;;;17.35;22.02
13478;BME280;12598;62.382;17.344;2023-04-06T04:02:14;102639.34;;;17.33;21.94
13478;BME280;12598;62.382;17.344;2023-04-06T04:03:16;102640.22;;;17.34;21.75
13478;BME280;12598;62.382;17.344;2023-04-06T04:04:19;102642.88;;;17.34;21.77
13478;BME280;12598;62.382;17.344;2023-04-06T04:05:20;102637.97;;;17.26;21.68
13478;BME280;12598;62.382;17.344;2023-04-06T04:06:27;102651.75;;;17.34;21.84
13478;BME280;12598;62.382;17.344;2023-04-06T04:07:29;102650.91;;;17.34;21.98
13478;BME280;12598;62.382;17.344;2023-04-06T04:08:31;102643.72;;;17.34;21.78
13478;BME280;12598;62.382;17.344;2023-04-06T04:09:33;102651.75;;;17.34;21.73
13478;BME280;12598;62.382;17.344;2023-04-06T04:10:35;102630.91;;;17.25;21.96
13478;BME280;12598;62.382;17.344;2023-04-06T04:11:36;102638.50;;;17.33;22.08
13478;BME280;12598;62.382;17.344;2023-04-06T04:12:38;102654.53;;;17.33;21.78
13478;BME280;12598;62.382;17.344;2023-04-06T04:13:41;102650.03;;;17.33;21.76
13478;BME280;12598;62.382;17.344;2023-04-06T04:14:43;102651.75;;;17.34;21.80
13478;BME280;12598;62.382;17.344;2023-04-06T04:15:45;102651.75;;;17.34;22.00
13478;BME280;12598;62.382;17.344;2023-04-06T04:16:49;102650.91;;;17.34;21.90
13478;BME280;12598;62.382;17.344;2023-04-06T04:17:52;102650.91;;;17.34;22.07
13478;BME280;12598;62.382;17.344;2023-04-06T04:18:54;102641.41;;;17.28;21.83
13478;BME280;12598;62.382;17.344;2023-04-06T04:19:57;102649.94;;;17.35;21.96
13478;BME280;12598;62.382;17.344;2023-04-06T04:20:59;102650.91;;;17.34;21.96
13478;BME280;12598;62.382;17.344;2023-04-06T04:22:02;102651.75;;;17.34;21.91
13478;BME280;12598;62.382;17.344;2023-04-06T04:23:09;102652.63;;;17.35;22.14
13478;BME280;12598;62.382;17.344;2023-04-06T04:24:11;102653.59;;;17.34;21.88
13478;BME280;12598;62.382;17.344;2023-04-06T04:25:13;102655.38;;;17.33;21.98
13478;BME280;12598;62.382;17.344;2023-04-06T04:26:20;102657.09;;;17.34;22.14
13478;BME280;12598;62.382;17.344;2023-04-06T04:27:22;102656.16;;;17.35;21.89
13478;BME280;12598;62.382;17.344;2023-04-06T04:28:25;102662.44;;;17.34;22.00
13478;BME280;12598;62.382;17.344;2023-04-06T04:29:29;102655.38;;;17.33;22.17
13478;BME280;12598;62.382;17.344;2023-04-06T04:30:36;102645.81;;;17.29;22.03
13478;BME280;12598;62.382;17.344;2023-04-06T04:31:43;102652.78;;;17.32;22.04
13478;BME280;12598;62.382;17.344;2023-04-06T04:32:51;102657.84;;;17.36;22.25
13478;BME280;12598;62.382;17.344;2023-04-06T04:33:57;102660.91;;;17.30;22.00
13478;BME280;12598;62.382;17.344;2023-04-06T04:35:03;102661.41;;;17.37;22.16
13478;BME280;12598;62.382;17.344;2023-04-06T04:36:10;102661.41;;;17.37;21.90
13478;BME280;12598;62.382;17.344;2023-04-06T04:37:15;102669.31;;;17.38;22.00
13478;BME280;12598;62.382;17.344;2023-04-06T04:38:23;102663.22;;;17.36;22.05
13478;BME280;12598;62.382;17.344;2023-04-06T04:39:27;102665.88;;;17.36;21.97
13478;BME280;12598;62.382;17.344;2023-04-06T04:40:36;102660.53;;;17.36;21.91
13478;BME280;12598;62.382;17.344;2023-04-06T04:41:42;102665.03;;;17.36;22.03
13478;BME280;12598;62.382;17.344;2023-04-06T04:42:46;102655.53;;;17.30;22.13
13478;BME280;12598;62.382;17.344;2023-04-06T04:43:55;102667.59;;;17.37;22.09
13478;BME280;12598;62.382;17.344;2023-04-06T04:44:59;102665.03;;;17.36;22.28
13478;BME280;12598;62.382;17.344;2023-04-06T04:46:08;102671.22;;;17.36;21.86
13478;BME280;12598;62.382;17.344;2023-04-06T04:47:16;102668.56;;;17.36;22.05
13478;BME280;12598;62.382;17.344;2023-04-06T04:48:20;102670.38;;;17.36;22.22
13478;BME280;12598;62.382;17.344;2023-04-06T04:49:27;102662.59;;;17.31;22.28
13478;BME280;12598;62.382;17.344;2023-04-06T04:50:29;102674.03;;;17.35;22.21
13478;BME280;12598;62.382;17.344;2023-04-06T04:51:32;102661.00;;;17.29;22.36
13478;BME280;12598;62.382;17.344;2023-04-06T04:52:43;102665.88;;;17.36;22.23
13478;BME280;12598;62.382;17.344;2023-04-06T04:53:50;102668.56;;;17.36;22.28
13478;BME280;12598;62.382;17.344;2023-04-06T04:54:59;102670.28;;;17.37;22.33
13478;BME280;12598;62.382;17.344;2023-04-06T04:56:03;102668.56;;;17.36;22.17
13478;BME280;12598;62.382;17.344;2023-04-06T04:57:06;102674.88;;;17.35;22.23
13478;BME280;12598;62.382;17.344;2023-04-06T04:58:16;102672.09;;;17.37;22.13
13478;BME280;12598;62.382;17.344;2023-04-06T04:59:26;102670.38;;;17.36;22.43
13478;BME280;12598;62.382;17.344;2023-04-06T05:00:37;102675.63;;;17.37;22.25
13478;BME280;12598;62.382;17.344;2023-04-06T05:01:39;102667.78;;;17.34;22.23
13478;BME280;12598;62.382;17.344;2023-04-06T05:02:57;102660.81;;;17.32;22.54
13478;BME280;12598;62.382;17.344;2023-04-06T05:04:04;102672.94;;;17.37;22.28
13478;BME280;12598;62.382;17.344;2023-04-06T05:05:07;102643.03;;;17.17;22.24
13478;BME280;12598;62.382;17.344;2023-04-06T05:06:10;102668.75;;;17.33;22.20
13478;BME280;12598;62.382;17.344;2023-04-06T05:07:15;102675.75;;;17.36;22.12
13478;BME280;12598;62.382;17.344;2023-04-06T05:08:20;102654.41;;;17.20;22.18
13478;BME280;12598;62.382;17.344;2023-04-06T05:09:22;102677.66;;;17.34;22.27
13478;BME280;12598;62.382;17.344;2023-04-06T05:10:24;102669.63;;;17.34;22.39
13478;BME280;12598;62.382;17.344;2023-04-06T05:11:31;102673.91;;;17.36;22.09
13478;BME280;12598;62.382;17.344;2023-04-06T05:12:34;102674.66;;;17.38;22.32
13478;BME280;12598;62.382;17.344;2023-04-06T05:13:40;102672.75;;;17.40;22.16
13478;BME280;12598;62.382;17.344;2023-04-06T05:14:48;102672.56;;;17.43;22.38
13478;BME280;12598;62.382;17.344;2023-04-06T05:15:52;102669.13;;;17.41;22.11
13478;BME280;12598;62.382;17.344;2023-04-06T05:17:00;102679.25;;;17.50;22.27
13478;BME280;12598;62.382;17.344;2023-04-06T05:18:04;102671.13;;;17.52;22.05
13478;BME280;12598;62.382;17.344;2023-04-06T05:19:09;102672.94;;;17.51;22.09
13478;BME280;12598;62.382;17.344;2023-04-06T05:20:17;102682.19;;;17.60;22.26
13478;BME280;12598;62.382;17.344;2023-04-06T05:21:23;102678.47;;;17.62;21.92
13478;BME280;12598;62.382;17.344;2023-04-06T05:22:38;102682.47;;;17.69;21.99
13478;BME280;12598;62.382;17.344;2023-04-06T05:23:43;102664.13;;;17.63;22.19
13478;BME280;12598;62.382;17.344;2023-04-06T05:24:46;102685.69;;;17.74;21.89
13478;BME280;12598;62.382;17.344;2023-04-06T05:25:48;102679.38;;;17.75;21.72
13478;BME280;12598;62.382;17.344;2023-04-06T05:26:54;102681.78;;;17.80;21.78
13478;BME280;12598;62.382;17.344;2023-04-06T05:27:58;102685.09;;;17.83;21.92
13478;BME280;12598;62.382;17.344;2023-04-06T05:29:04;102683.97;;;17.87;21.79
13478;BME280;12598;62.382;17.344;2023-04-06T05:30:09;102681.94;;;17.90;21.67
13478;BME280;12598;62.382;17.344;2023-04-06T05:31:18;102673.69;;;17.93;21.67
13478;BME280;12598;62.382;17.344;2023-04-06T05:32:23;102669.41;;;17.91;21.43
13478;BME280;12598;62.382;17.344;2023-04-06T05:33:27;102674.38;;;17.97;21.63
13478;BME280;12598;62.382;17.344;2023-04-06T05:34:56;102679.78;;;18.09;21.51
13478;BME280;12598;62.382;17.344;2023-04-06T05:35:58;102674.16;;;18.00;21.31
13478;BME280;12598;62.382;17.344;2023-04-06T05:37:03;102686.84;;;18.10;21.46